Time;durP1;ratioP1;P1;durP2;ratioP2;P2;SDS_P1;SDS_P2;PMS_P1;PMS_P2;Temp;Humidity;BMP_temperature;BMP_pressure;BME280_temperature;BME280_humidity;BME280_pressure;Samples;Min_cycle;Max_cycle;Signal;HPM_P1;HPM_P2
2021/04/26 00:00:05;;;;;;;27.25;25.55;;;1.00;99.90;;;;;;4897988;29;20686;-82
2021/04/26 00:02:33;;;;;;;28.65;27.15;;;0.90;99.90;;;;;;4908607;29;20224;-82
2021/04/26 00:05:17;;;;;;;32.50;30.25;;;0.80;99.90;;;;;;4897973;29;20237;-82
2021/04/26 00:07:48;;;;;;;34.20;32.50;;;0.90;99.90;;;;;;4885694;29;20194;-82
2021/04/26 00:10:18;;;;;;;37.13;33.70;;;0.90;99.90;;;;;;4899609;29;20270;-82
2021/04/26 00:13:20;;;;;;;;;;;;;;;;;;;;;
2021/04/26 00:18:43;;;;;;;37.17;35.25;;;0.80;99.90;;;;;;4913201;29;20465;-82
2021/04/26 00:21:14;;;;;;;37.78;35.97;;;0.80;99.90;;;;;;4900190;29;20198;-82
2021/04/26 00:23:56;;;;;;;38.55;36.35;;;0.70;99.90;;;;;;4905520;29;20250;-82
2021/04/26 00:26:31;;;;;;;42.13;39.83;;;0.70;99.90;;;;;;4906069;29;20693;-82
2021/04/26 00:29:19;;;;;;;47.38;44.88;;;0.70;99.90;;;;;;4913245;29;20193;-82
2021/04/26 00:31:52;;;;;;;42.85;40.72;;;0.70;99.90;;;;;;4866428;29;20610;-82
2021/04/26 00:34:29;;;;;;;31.95;30.33;;;0.70;99.90;;;;;;4902306;29;20536;-82
2021/04/26 00:36:55;;;;;;;24.67;23.30;;;0.70;99.90;;;;;;4902907;29;20701;-82
2021/04/26 00:39:22;;;;;;;22.15;20.75;;;0.60;99.90;;;;;;4902985;29;20808;-82
2021/04/26 00:42:02;;;;;;;9.00;8.20;;;0.70;99.90;;;;;;4901410;29;20229;-82
2021/04/26 00:44:49;;;;;;;8.40;7.53;;;0.70;99.90;;;;;;4901828;29;20198;-82
2021/04/26 00:47:26;;;;;;;;;;;;;;;;;;;;;
2021/04/26 00:49:53;;;;;;;6.82;4.60;;;0.70;99.90;;;;;;4901315;29;20263;-81
2021/04/26 00:52:29;;;;;;;;;;;;;;;;;;;;;
2021/04/26 00:55:06;;;;;;;11.50;10.43;;;0.50;99.90;;;;;;4898400;29;20650;-82
2021/04/26 00:57:37;;;;;;;13.10;12.13;;;0.40;99.90;;;;;;4909230;29;20197;-82
2021/04/26 01:00:10;;;;;;;19.13;17.75;;;0.30;99.90;;;;;;4907972;29;20221;-82
2021/04/26 01:02:48;;;;;;;;;;;;;;;;;;;;;
2021/04/26 01:05:18;;;;;;;30.90;28.80;;;0.20;99.90;;;;;;4907754;29;20194;-82
2021/04/26 01:07:59;;;;;;;33.97;32.28;;;0.20;99.90;;;;;;4900608;29;20202;-83
2021/04/26 01:10:30;;;;;;;37.58;35.80;;;0.10;99.90;;;;;;4892336;29;20206;-82
2021/04/26 01:13:32;;;;;;;40.83;38.92;;;0.10;99.90;;;;;;4920086;29;20229;-83
2021/04/26 01:16:08;;;;;;;39.80;37.95;;;0.10;99.90;;;;;;4885075;29;20622;-82
2021/04/26 01:18:47;;;;;;;43.38;41.38;;;0.10;99.90;;;;;;4910301;29;20205;-82
2021/04/26 01:22:05;;;;;;;;;;;;;;;;;;;;;
2021/04/26 01:25:00;;;;;;;45.60;43.47;;;-0.10;99.90;;;;;;4916431;29;20205;-83
2021/04/26 01:27:51;;;;;;;50.10;47.70;;;-0.10;99.90;;;;;;4910465;29;20214;-83
2021/04/26 01:30:46;;;;;;;51.42;48.92;;;0.00;99.90;;;;;;4879694;29;20195;-82
2021/04/26 01:33:25;;;;;;;59.25;56.15;;;-0.10;99.90;;;;;;4823472;29;20277;-82
2021/04/26 01:36:01;;;;;;;58.13;55.35;;;0.00;99.90;;;;;;4878020;29;20210;-83
2021/04/26 01:38:42;;;;;;;59.65;56.88;;;0.20;99.90;;;;;;4901865;29;20202;-82
2021/04/26 01:41:35;;;;;;;;;;;;;;;;;;;;;
2021/04/26 01:44:22;;;;;;;57.92;55.25;;;0.00;99.90;;;;;;4881133;29;20809;-82
2021/04/26 01:47:20;;;;;;;60.78;55.92;;;-0.10;99.90;;;;;;4894505;29;20198;-82
2021/04/26 01:49:52;;;;;;;56.22;52.63;;;0.10;99.90;;;;;;4804212;29;20198;-82
2021/04/26 01:52:19;;;;;;;61.42;56.95;;;0.20;99.90;;;;;;4851568;29;20265;-82
2021/04/26 01:55:15;;;;;;;;;;;;;;;;;;;;;
2021/04/26 01:58:09;;;;;;;;;;;;;;;;;;;;;
2021/04/26 02:00:57;;;;;;;65.47;62.17;;;0.10;99.90;;;;;;4873373;29;20605;-82
2021/04/26 02:03:36;;;;;;;63.13;60.13;;;0.00;99.90;;;;;;4916411;29;20197;-82
2021/04/26 02:06:44;;;;;;;;;;;;;;;;;;;;;
2021/04/26 02:09:24;;;;;;;65.22;62.00;;;-0.10;99.90;;;;;;4844562;29;20743;-83
2021/04/26 02:12:21;;;;;;;;;;;;;;;;;;;;;
2021/04/26 02:15:06;;;;;;;;;;;;;;;;;;;;;
2021/04/26 02:18:02;;;;;;;65.78;62.53;;;-0.10;99.90;;;;;;4874886;29;20195;-82
2021/04/26 02:20:49;;;;;;;66.28;63.17;;;-0.20;99.90;;;;;;4839395;29;20195;-82
2021/04/26 02:26:58;;;;;;;;;;;;;;;;;;;;;
2021/04/26 02:29:51;;;;;;;65.97;62.85;;;-0.40;99.90;;;;;;4867893;29;20717;-83
2021/04/26 02:32:35;;;;;;;66.35;63.05;;;-0.50;99.90;;;;;;4860293;29;20318;-82
2021/04/26 02:35:43;;;;;;;;;;;;;;;;;;;;;
2021/04/26 02:41:18;;;;;;;69.63;65.82;;;-0.50;99.90;;;;;;4909931;29;20665;-82
2021/04/26 02:44:03;;;;;;;69.63;66.22;;;-0.40;99.90;;;;;;4914994;29;20195;-82
2021/04/26 02:47:04;;;;;;;;;;;;;;;;;;;;;
2021/04/26 02:49:58;;;;;;;73.63;69.65;;;-0.60;99.90;;;;;;4901594;29;20725;-83
2021/04/26 02:55:18;;;;;;;71.32;67.93;;;-0.60;99.90;;;;;;4896153;29;20198;-82
2021/04/26 02:57:49;;;;;;;72.25;68.15;;;-0.60;99.90;;;;;;4907446;29;20246;-82
2021/04/26 03:06:49;;;;;;;67.10;63.83;;;-0.60;99.90;;;;;;4905772;29;20203;-83
2021/04/26 03:09:38;;;;;;;66.97;63.75;;;-0.70;99.90;;;;;;4898787;29;20738;-82
2021/04/26 03:18:14;;;;;;;70.80;67.45;;;-0.70;99.90;;;;;;4879730;29;20202;-81
2021/04/26 03:21:06;;;;;;;72.50;69.18;;;-0.70;99.90;;;;;;4898654;29;20202;-82
2021/04/26 03:23:55;;;;;;;67.53;64.43;;;-0.60;99.90;;;;;;4877993;29;20203;-82
2021/04/26 03:26:25;;;;;;;71.22;67.38;;;-0.60;99.90;;;;;;4904477;29;20215;-83
2021/04/26 03:28:59;;;;;;;68.13;64.63;;;-0.60;99.90;;;;;;4905588;29;20205;-82
2021/04/26 03:32:01;;;;;;;67.88;64.68;;;-0.80;99.90;;;;;;4916167;29;20209;-82
2021/04/26 03:34:51;;;;;;;66.03;62.65;;;-0.90;99.90;;;;;;4903727;29;20197;-83
2021/04/26 03:37:42;;;;;;;70.03;66.07;;;-0.80;99.90;;;;;;4909859;29;20195;-83
2021/04/26 03:41:02;;;;;;;;;;;;;;;;;;;;;
2021/04/26 03:43:49;;;;;;;;;;;;;;;;;;;;;
2021/04/26 03:46:56;;;;;;;65.68;62.28;;;-1.00;99.90;;;;;;4868938;29;20240;-83
2021/04/26 03:49:28;;;;;;;65.75;62.08;;;-1.00;99.90;;;;;;4905333;29;20212;-82
2021/04/26 03:52:27;;;;;;;67.22;63.63;;;-0.90;99.90;;;;;;4916037;29;20257;-82
2021/04/26 04:04:16;;;;;;;71.53;64.40;;;-1.00;99.90;;;;;;4700675;29;20199;-79
2021/04/26 04:06:42;;;;;;;68.38;64.85;;;-1.10;99.90;;;;;;4867224;29;20196;-80
2021/04/26 04:09:09;;;;;;;72.28;68.43;;;-1.20;99.90;;;;;;4865209;29;20332;-80
2021/04/26 04:11:36;;;;;;;70.30;66.88;;;-1.10;99.90;;;;;;4858250;29;20204;-83
2021/04/26 04:14:22;;;;;;;70.50;67.07;;;-1.10;99.90;;;;;;4858638;29;20256;-83
2021/04/26 04:16:52;;;;;;;69.13;65.72;;;-1.20;99.90;;;;;;4858531;29;20199;-82
2021/04/26 04:20:03;;;;;;;;;;;;;;;;;;;;;
2021/04/26 04:23:00;;;;;;;65.85;62.25;;;-1.20;99.90;;;;;;4851821;29;20203;-81
2021/04/26 04:25:27;;;;;;;70.03;66.60;;;-1.20;99.90;;;;;;4878363;29;20598;-81
2021/04/26 04:27:53;;;;;;;73.20;69.50;;;-1.30;99.90;;;;;;4897898;29;20198;-80
2021/04/26 04:30:21;;;;;;;69.20;65.60;;;-1.30;99.90;;;;;;4914257;29;20294;-81
2021/04/26 04:32:54;;;;;;;72.28;68.88;;;-1.30;99.90;;;;;;4918628;29;20305;-81
2021/04/26 04:35:48;;;;;;;71.45;68.07;;;-1.30;99.90;;;;;;4900155;29;20198;-83
2021/04/26 04:38:26;;;;;;;;;;;;;;;;;;;;;
2021/04/26 04:41:21;;;;;;;;;;;;;;;;;;;;;
2021/04/26 04:43:52;;;;;;;70.53;67.07;;;-1.30;99.90;;;;;;4914591;29;20213;-82
2021/04/26 04:49:09;;;;;;;74.82;71.38;;;-1.20;99.90;;;;;;4915658;29;20202;-82
2021/04/26 04:51:54;;;;;;;;;;;;;;;;;;;;;
2021/04/26 04:57:53;;;;;;;70.75;67.35;;;-1.10;99.90;;;;;;4903063;29;20949;-82
2021/04/26 05:00:22;;;;;;;72.80;69.18;;;-1.00;99.90;;;;;;4876410;29;20202;-81
2021/04/26 05:03:05;;;;;;;73.63;69.72;;;-1.00;99.90;;;;;;4858701;29;20195;-82
2021/04/26 05:05:43;;;;;;;76.60;72.60;;;-0.80;99.90;;;;;;4858213;29;20210;-82
2021/04/26 05:08:50;;;;;;;;;;;;;;;;;;;;;
2021/04/26 05:17:50;;;;;;;;;;;;;;;;;;;;;
2021/04/26 05:26:50;;;;;;;88.90;84.70;;;0.10;99.90;;;;;;4797972;29;20205;-82
2021/04/26 05:32:59;;;;;;;75.87;71.77;;;1.70;99.90;;;;;;4857944;29;20227;-81
2021/04/26 05:35:26;;;;;;;57.50;51.83;;;2.50;99.90;;;;;;4901418;29;20553;-82
2021/04/26 05:38:01;;;;;;;30.70;28.53;;;3.10;99.90;;;;;;4909654;29;20530;-80
2021/04/26 05:40:32;;;;;;;18.87;10.93;;;3.60;99.90;;;;;;4899846;29;20457;-81
2021/04/26 05:43:10;;;;;;;22.60;8.80;;;3.90;99.90;;;;;;4900570;29;20498;-81
2021/04/26 05:45:38;;;;;;;18.30;6.00;;;4.40;99.90;;;;;;4908701;29;20458;-81
2021/04/26 05:48:08;;;;;;;18.20;6.10;;;4.60;99.90;;;;;;4900395;29;20466;-82
2021/04/26 05:50:34;;;;;;;14.53;5.23;;;5.20;99.90;;;;;;4900549;29;20452;-82
2021/04/26 05:53:01;;;;;;;15.07;4.53;;;5.80;99.90;;;;;;4907421;29;20536;-82
2021/04/26 05:55:27;;;;;;;22.57;6.60;;;6.30;99.90;;;;;;4907687;29;20462;-82
2021/04/26 05:57:54;;;;;;;14.00;5.10;;;6.70;99.90;;;;;;4902326;29;20467;-81
2021/04/26 06:00:34;;;;;;;18.37;4.17;;;7.00;68.60;;;;;;4905696;29;20446;-81
2021/04/26 06:03:06;;;;;;;15.10;3.73;;;7.10;60.80;;;;;;4906165;29;20457;-82
2021/04/26 06:05:44;;;;;;;16.70;4.00;;;6.90;49.60;;;;;;4909179;29;20947;-83
2021/04/26 06:08:17;;;;;;;18.47;3.73;;;6.90;56.70;;;;;;4901700;29;20517;-83
2021/04/26 06:10:43;;;;;;;18.93;3.80;;;6.70;43.30;;;;;;4901764;29;20462;-82
2021/04/26 06:13:10;;;;;;;14.90;3.80;;;7.10;53.40;;;;;;4900989;29;21022;-82
2021/04/26 06:15:37;;;;;;;28.17;4.30;;;7.10;35.10;;;;;;4906691;29;20519;-82
2021/04/26 06:18:13;;;;;;;15.97;3.07;;;6.90;42.30;;;;;;4905819;29;20824;-82
2021/04/26 06:21:06;;;;;;;14.83;3.63;;;6.70;30.10;;;;;;4908791;29;21032;-82
2021/04/26 06:23:32;;;;;;;16.27;3.33;;;6.50;36.20;;;;;;4911978;29;20841;-82
2021/04/26 06:29:57;;;;;;;11.10;3.90;;;6.10;36.70;;;;;;4834127;29;20457;-81
2021/04/26 06:32:26;;;;;;;11.77;5.13;;;6.00;39.80;;;;;;4875776;29;20567;-82
2021/04/26 06:34:54;;;;;;;22.03;6.20;;;5.90;42.30;;;;;;4911765;29;20461;-82
2021/04/26 06:40:38;;;;;;;9.60;2.93;;;5.70;47.00;;;;;;4883882;29;20483;-81
2021/04/26 06:43:35;;;;;;;;;;;;;;;;;;;;;
2021/04/26 06:46:15;;;;;;;12.17;3.80;;;5.60;34.70;;;;;;4865005;29;20450;-84
2021/04/26 06:48:46;;;;;;;8.30;3.20;;;5.70;36.10;;;;;;4898254;29;20466;-83
2021/04/26 06:54:19;;;;;;;12.10;3.20;;;5.90;35.50;;;;;;4903637;29;20477;-83
2021/04/26 06:56:53;;;;;;;12.80;3.90;;;6.10;26.50;;;;;;4900029;29;20534;-85
2021/04/26 06:59:25;;;;;;;10.47;3.40;;;6.30;27.60;;;;;;4900360;29;20470;-84
2021/04/26 07:01:59;;;;;;;10.10;3.70;;;6.60;26.00;;;;;;4904749;29;20960;-84
2021/04/26 07:04:27;;;;;;;12.63;2.20;;;6.70;23.50;;;;;;4898715;29;20469;-83
2021/04/26 07:06:57;;;;;;;9.03;2.57;;;6.70;23.70;;;;;;4899063;29;20509;-83
2021/04/26 07:12:36;;;;;;;8.43;2.70;;;7.00;22.70;;;;;;4906817;29;21040;-83
2021/04/26 07:15:03;;;;;;;17.40;4.67;;;7.00;19.10;;;;;;4902360;29;20454;-84
2021/04/26 07:20:38;;;;;;;10.17;2.30;;;7.40;18.00;;;;;;4903796;29;20461;-84
2021/04/26 07:23:25;;;;;;;11.87;3.10;;;7.50;15.10;;;;;;4914366;29;20462;-83
2021/04/26 07:25:59;;;;;;;11.30;2.67;;;7.60;13.50;;;;;;4907545;29;21152;-82
2021/04/26 07:28:29;;;;;;;11.67;3.00;;;7.60;14.20;;;;;;4900521;29;20515;-82
2021/04/26 07:31:19;;;;;;;13.20;3.43;;;7.80;11.80;;;;;;4912646;29;20458;-84
2021/04/26 07:37:17;;;;;;;;;;;;;;;;;;;;;
2021/04/26 07:43:06;;;;;;;12.70;3.57;;;8.30;8.30;;;;;;4877697;29;20456;-81
2021/04/26 07:45:33;;;;;;;20.37;3.67;;;8.30;7.60;;;;;;4905088;29;20457;-81
2021/04/26 07:48:00;;;;;;;11.90;3.63;;;8.50;7.10;;;;;;4910246;29;21153;-81
2021/04/26 07:50:27;;;;;;;8.90;2.33;;;8.70;5.30;;;;;;4903916;29;20494;-81
2021/04/26 07:52:54;;;;;;;10.70;2.70;;;8.70;4.70;;;;;;4905986;29;20583;-81
2021/04/26 07:55:35;;;;;;;;;;;;;;;;;;;;;
2021/04/26 07:58:03;;;;;;;12.60;2.50;;;9.50;1.70;;;;;;4874879;29;20869;-83
2021/04/26 08:00:45;;;;;;;14.50;2.20;;;10.10;1.00;;;;;;4904240;29;20489;-83
2021/04/26 08:09:32;;;;;;;17.83;2.67;;;11.10;1.00;;;;;;4879422;29;20875;-83
2021/04/26 08:12:20;;;;;;;27.33;1.90;;;11.60;1.00;;;;;;4903707;29;20480;-82
2021/04/26 08:15:19;;;;;;;16.73;2.03;;;12.00;1.00;;;;;;4879598;29;20468;-83
2021/04/26 08:17:58;;;;;;;17.97;2.37;;;12.40;1.00;;;;;;4880596;29;20526;-83
2021/04/26 08:20:31;;;;;;;19.10;2.00;;;12.80;1.00;;;;;;4903305;29;20516;-82
2021/04/26 08:26:07;;;;;;;19.43;1.60;;;13.20;1.00;;;;;;4898292;29;20500;-82
2021/04/26 08:28:35;;;;;;;21.10;1.60;;;13.50;1.00;;;;;;4906274;29;20534;-81
2021/04/26 08:31:06;;;;;;;20.80;1.70;;;13.60;1.00;;;;;;4898869;29;20455;-81
2021/04/26 08:34:09;;;;;;;21.80;2.10;;;13.70;1.00;;;;;;4897736;29;20493;-83
2021/04/26 08:36:52;;;;;;;25.20;1.77;;;14.00;1.00;;;;;;4885947;29;20544;-82
2021/04/26 08:39:30;;;;;;;21.80;1.40;;;13.40;1.00;;;;;;4897502;29;20523;-81
2021/04/26 08:42:13;;;;;;;;;;;;;;;;;;;;;
2021/04/26 08:44:43;;;;;;;22.00;1.77;;;14.20;1.00;;;;;;4912623;29;20876;-82
2021/04/26 08:47:23;;;;;;;;;;;;;;;;;;;;;
2021/04/26 08:50:04;;;;;;;21.67;2.00;;;13.70;1.00;;;;;;4911180;29;20461;-82
2021/04/26 08:52:40;;;;;;;23.53;1.60;;;14.00;1.00;;;;;;4901817;29;20492;-84
2021/04/26 08:58:26;;;;;;;20.97;1.50;;;14.40;1.00;;;;;;4838529;29;20464;-81
2021/04/26 09:01:13;;;;;;;26.13;1.97;;;14.30;1.00;;;;;;4902637;29;21059;-82
2021/04/26 09:03:48;;;;;;;21.90;1.57;;;14.30;1.00;;;;;;4882554;29;20467;-82
2021/04/26 09:06:19;;;;;;;23.70;1.90;;;14.00;1.00;;;;;;4906640;29;20446;-82
2021/04/26 09:08:56;;;;;;;22.87;1.60;;;14.40;1.00;;;;;;4915461;29;20517;-82
2021/04/26 09:15:09;;;;;;;;;;;;;;;;;;;;;
2021/04/26 09:21:47;;;;;;;;;;;;;;;;;;;;;
2021/04/26 09:27:51;;;;;;;21.50;1.47;;;15.00;1.00;;;;;;4905101;29;20450;-82
2021/04/26 09:31:00;;;;;;;21.63;1.50;;;15.10;1.00;;;;;;4904740;29;20453;-82
2021/04/26 09:40:15;;;;;;;21.90;1.80;;;14.60;1.00;;;;;;4754660;30;20471;-83
2021/04/26 10:30:15;;;;;;;29.93;2.37;;;18.40;1.00;;;;;;4889386;29;20570;-84
2021/04/26 10:49:26;;;;;;;31.50;2.70;;;19.90;1.00;;;;;;4859438;29;20463;-84
2021/04/26 10:52:00;;;;;;;31.70;2.70;;;20.90;1.00;;;;;;4878426;29;20483;-83
2021/04/26 10:58:33;;;;;;;;;;;;;;;;;;;;;
2021/04/26 11:05:46;;;;;;;33.93;3.10;;;20.10;1.00;;;;;;4704264;30;20502;-83
2021/04/26 11:26:06;;;;;;;;;;;;;;;;;;;;;
2021/04/26 12:28:05;;;;;;;;;;;;;;;;;;;;;
2021/04/26 13:26:31;;;;;;;36.37;4.03;;;22.20;1.00;;;;;;5816605;24;20412;-78
2021/04/26 13:29:14;;;;;;;31.47;2.70;;;22.90;1.00;;;;;;5847858;24;20451;-83
2021/04/26 13:31:49;;;;;;;35.10;3.20;;;22.60;1.00;;;;;;5922632;24;20420;-83
2021/04/26 13:34:18;;;;;;;31.60;3.30;;;21.70;1.00;;;;;;5969556;23;20437;-83
2021/04/26 13:36:47;;;;;;;33.77;3.60;;;22.70;1.00;;;;;;6009531;23;20510;-83
2021/04/26 13:39:16;;;;;;;32.57;2.93;;;23.10;1.00;;;;;;6009489;23;20407;-83
2021/04/26 13:41:45;;;;;;;32.07;3.20;;;21.60;1.00;;;;;;6017507;23;20414;-83
2021/04/26 13:44:14;;;;;;;32.57;3.17;;;21.00;1.00;;;;;;6115937;23;20487;-81
2021/04/26 13:46:42;;;;;;;34.77;3.60;;;20.40;1.00;;;;;;6186211;23;20786;-80
2021/04/26 13:49:09;;;;;;;34.13;3.13;;;20.50;1.00;;;;;;6186701;23;20401;-80
2021/04/26 13:51:35;;;;;;;32.13;3.27;;;19.60;1.00;;;;;;6208902;23;20834;-83
2021/04/26 13:54:02;;;;;;;31.37;3.67;;;19.90;1.00;;;;;;6216497;23;20403;-82
2021/04/26 13:56:30;;;;;;;32.47;3.80;;;20.10;1.00;;;;;;6224905;23;20781;-84
2021/04/26 13:58:57;;;;;;;29.90;2.50;;;20.60;1.00;;;;;;6226636;23;20450;-82
2021/04/26 14:01:23;;;;;;;33.70;3.30;;;19.90;1.00;;;;;;6216525;23;20400;-82
2021/04/26 14:03:50;;;;;;;30.50;3.40;;;19.40;1.00;;;;;;6216582;23;20430;-83
2021/04/26 14:06:16;;;;;;;30.77;3.63;;;19.70;1.00;;;;;;6225884;23;20896;-84
2021/04/26 14:08:43;;;;;;;29.70;2.77;;;19.40;1.00;;;;;;6226107;23;20466;-82
2021/04/26 14:11:10;;;;;;;32.20;3.73;;;19.00;1.00;;;;;;6224675;23;20412;-83
2021/04/26 14:13:40;;;;;;;31.37;3.30;;;19.30;1.00;;;;;;6226262;23;20431;-83
2021/04/26 14:16:07;;;;;;;29.87;2.97;;;18.90;1.00;;;;;;6216447;23;20375;-82
2021/04/26 14:18:33;;;;;;;30.73;3.90;;;19.40;1.00;;;;;;6216536;23;20407;-84
2021/04/26 14:21:00;;;;;;;29.47;3.13;;;19.10;1.00;;;;;;6216405;23;20404;-81
2021/04/26 14:23:35;;;;;;;30.27;3.40;;;19.40;1.00;;;;;;6216331;23;20514;-83
2021/04/26 14:26:01;;;;;;;29.50;3.30;;;19.80;1.00;;;;;;6186321;23;20439;-82
2021/04/26 14:28:28;;;;;;;32.43;3.20;;;20.30;1.00;;;;;;6196073;23;20412;-82
2021/04/26 14:30:55;;;;;;;29.23;3.13;;;20.00;1.00;;;;;;6195906;23;20497;-81
2021/04/26 14:33:21;;;;;;;29.90;3.27;;;19.20;1.00;;;;;;6196251;23;20444;-82
2021/04/26 14:35:50;;;;;;;30.10;2.40;;;19.10;1.00;;;;;;6185847;23;20456;-83
2021/04/26 14:38:18;;;;;;;29.57;3.40;;;19.60;1.00;;;;;;6186107;23;20401;-81
2021/04/26 14:40:45;;;;;;;31.23;4.33;;;19.30;1.00;;;;;;6184097;23;20401;-82
2021/04/26 14:43:12;;;;;;;29.70;3.47;;;18.60;1.00;;;;;;6186449;23;20412;-83
2021/04/26 14:45:43;;;;;;;31.90;4.03;;;18.40;1.00;;;;;;6186361;23;20489;-81
2021/04/26 14:48:19;;;;;;;29.70;4.23;;;18.50;1.00;;;;;;6186045;23;20431;-82
2021/04/26 14:50:45;;;;;;;29.20;3.00;;;18.80;1.00;;;;;;6202931;23;20459;-82
2021/04/26 14:53:12;;;;;;;28.83;2.50;;;18.60;1.00;;;;;;6225739;23;20408;-83
2021/04/26 14:55:38;;;;;;;29.63;3.30;;;18.40;1.00;;;;;;6214146;23;20427;-81
2021/04/26 14:58:06;;;;;;;27.90;2.80;;;18.90;1.00;;;;;;6215971;23;20400;-82
2021/04/26 15:00:35;;;;;;;30.00;3.70;;;18.70;1.00;;;;;;6215604;23;20892;-83
2021/04/26 15:10:37;;;;;;;;;;;;;;;;;;;;;
2021/04/26 15:13:43;;;;;;;28.63;2.30;;;19.70;1.00;;;;;;6075221;23;20443;-83
2021/04/26 16:02:56;;;;;;;29.27;3.57;;;18.50;1.00;;;;;;6171844;23;20405;-83
2021/04/26 16:12:03;;;;;;;28.63;4.03;;;19.80;1.00;;;;;;5959883;23;20777;-82
2021/04/26 16:15:21;;;;;;;;;;;;;;;;;;;;;
2021/04/26 16:18:23;;;;;;;;;;;;;;;;;;;;;
2021/04/26 16:49:10;;;;;;;27.30;3.83;;;18.80;1.00;;;;;;5737698;25;20478;-82
2021/04/26 16:55:41;;;;;;;;;;;;;;;;;;;;;
2021/04/26 16:59:05;;;;;;;;;;;;;;;;;;;;;
2021/04/26 17:43:57;;;;;;;22.57;2.70;;;19.10;1.00;;;;;;5717162;25;20872;-84
2021/04/26 17:46:31;;;;;;;22.27;2.93;;;18.60;1.00;;;;;;5770251;24;20526;-85
2021/04/26 17:49:38;;;;;;;21.80;2.73;;;18.50;1.00;;;;;;5854210;24;20448;-83
2021/04/26 18:05:37;;;;;;;22.63;4.43;;;14.10;1.00;;;;;;5900252;24;20445;-84
2021/04/26 19:16:03;;;;;;;10.70;3.47;;;8.60;1.00;;;;;;5886017;23;20722;-82
2021/04/26 19:21:33;;;;;;;18.00;4.60;;;8.30;1.00;;;;;;5925100;23;20421;-83
2021/04/26 19:30:50;;;;;;;;;;;;;;;;;;;;;
2021/04/26 19:43:55;;;;;;;;;;;;;;;;;;;;;
2021/04/26 19:46:50;;;;;;;11.70;3.40;;;8.00;1.00;;;;;;6040713;23;20439;-83
2021/04/26 19:49:43;;;;;;;;;;;;;;;;;;;;;
2021/04/26 19:59:44;;;;;;;;;;;;;;;;;;;;;
2021/04/26 20:05:19;;;;;;;10.93;2.57;;;8.00;1.00;;;;;;5861708;24;20466;-84
2021/04/26 20:08:06;;;;;;;10.73;2.70;;;7.80;1.00;;;;;;6001036;23;20428;-83
2021/04/26 20:21:01;;;;;;;;;;;;;;;;;;;;;
2021/04/26 20:23:37;;;;;;;9.83;3.00;;;7.60;1.00;;;;;;5842364;24;20427;-84
2021/04/26 20:26:24;;;;;;;26.10;3.87;;;7.40;1.00;;;;;;5961803;24;20447;-84
2021/04/26 20:32:15;;;;;;;9.60;2.83;;;7.20;1.00;;;;;;5950036;24;20420;-83
2021/04/26 20:35:31;;;;;;;;;;;;;;;;;;;;;
2021/04/26 20:38:16;;;;;;;12.10;3.10;;;7.20;1.00;;;;;;5935383;24;20427;-83
2021/04/26 20:41:12;;;;;;;11.37;2.63;;;7.20;1.00;;;;;;6036501;23;20932;-83
2021/04/26 20:43:53;;;;;;;12.30;4.27;;;7.30;1.00;;;;;;5986767;23;20443;-84
2021/04/26 20:52:18;;;;;;;10.57;3.70;;;7.30;1.00;;;;;;6167222;23;20547;-84
2021/04/26 20:55:18;;;;;;;11.97;3.77;;;7.30;1.00;;;;;;6167208;23;20481;-83
2021/04/26 21:01:48;;;;;;;;;;;;;;;;;;;;;
2021/04/26 21:04:52;;;;;;;;;;;;;;;;;;;;;
2021/04/26 21:07:26;;;;;;;10.50;2.67;;;7.20;1.00;;;;;;5976158;24;20418;-83
2021/04/26 21:23:37;;;;;;;10.67;3.50;;;6.50;1.00;;;;;;5930901;24;20517;-83
2021/04/26 21:27:05;;;;;;;10.73;3.30;;;6.40;1.00;;;;;;5961302;24;20526;-83
2021/04/26 21:30:14;;;;;;;11.17;3.17;;;6.10;1.00;;;;;;6045438;23;20461;-83
2021/04/26 21:36:46;;;;;;;;;;;;;;;;;;;;;
2021/04/26 21:39:24;;;;;;;13.50;4.90;;;5.50;5.40;;;;;;5926528;23;20421;-83
2021/04/26 21:42:00;;;;;;;;;;;;;;;;;;;;;
2021/04/26 21:44:34;;;;;;;10.90;3.27;;;5.00;11.30;;;;;;6154406;23;20488;-83
2021/04/26 21:47:12;;;;;;;;;;;;;;;;;;;;;
2021/04/26 21:49:40;;;;;;;13.43;3.33;;;4.70;17.30;;;;;;6156627;23;20410;-82
2021/04/26 21:52:21;;;;;;;10.30;4.30;;;4.60;20.60;;;;;;6166762;23;20434;-83
2021/04/26 21:55:00;;;;;;;;;;;;;;;;;;;;;
2021/04/26 21:57:31;;;;;;;29.10;3.53;;;4.30;26.10;;;;;;6065850;23;20413;-82
2021/04/26 22:00:05;;;;;;;9.70;3.73;;;4.40;26.50;;;;;;6166256;23;20453;-83
2021/04/26 22:02:50;;;;;;;9.87;3.70;;;4.30;26.50;;;;;;6166244;23;20485;-83
2021/04/26 22:05:55;;;;;;;13.40;3.90;;;4.20;27.10;;;;;;6156522;23;20457;-82
2021/04/26 22:08:55;;;;;;;14.83;4.50;;;4.10;30.90;;;;;;6154334;23;20417;-83
2021/04/26 22:11:44;;;;;;;12.07;4.30;;;4.10;33.00;;;;;;6151928;23;20410;-83
2021/04/26 22:14:17;;;;;;;14.80;5.53;;;4.10;35.50;;;;;;6094623;23;21006;-83
2021/04/26 22:20:10;;;;;;;12.23;3.83;;;4.10;33.40;;;;;;6107971;23;20490;-83
2021/04/26 22:26:01;;;;;;;9.77;3.97;;;3.80;36.70;;;;;;6091455;23;20452;-82
2021/04/26 22:29:02;;;;;;;12.23;4.50;;;3.70;39.40;;;;;;6107341;23;20547;-83
2021/04/26 22:31:39;;;;;;;12.77;4.97;;;3.70;37.80;;;;;;6104263;23;20510;-82
2021/04/26 22:34:45;;;;;;;;;;;;;;;;;;;;;
2021/04/26 22:37:30;;;;;;;9.73;4.07;;;3.50;40.00;;;;;;5962272;24;20431;-82
2021/04/26 22:40:23;;;;;;;10.80;4.03;;;3.60;44.70;;;;;;6080578;23;20931;-82
2021/04/26 22:43:00;;;;;;;11.53;4.33;;;3.70;41.50;;;;;;6142363;23;20504;-83
2021/04/26 22:48:43;;;;;;;8.70;3.77;;;3.40;31.10;;;;;;6153516;23;20438;-82
2021/04/26 22:51:19;;;;;;;9.00;3.50;;;3.50;34.50;;;;;;6165782;23;20414;-83
2021/04/26 22:56:37;;;;;;;12.87;4.80;;;3.30;41.80;;;;;;6155488;23;20501;-82
2021/04/26 22:59:11;;;;;;;8.70;3.37;;;3.30;44.90;;;;;;6165786;23;20446;-82
2021/04/26 23:01:43;;;;;;;10.67;5.73;;;3.30;47.80;;;;;;6156137;23;20397;-82
2021/04/26 23:04:13;;;;;;;15.53;4.80;;;3.30;46.90;;;;;;6156101;23;20399;-83
2021/04/26 23:09:45;;;;;;;14.43;5.70;;;3.30;52.20;;;;;;6141520;23;20417;-82
2021/04/26 23:12:27;;;;;;;;;;;;;;;;;;;;;
2021/04/26 23:15:04;;;;;;;11.43;4.80;;;3.30;54.10;;;;;;6129341;23;20920;-83
2021/04/26 23:17:56;;;;;;;12.50;3.80;;;3.20;56.10;;;;;;6155987;23;20403;-82
2021/04/26 23:20:23;;;;;;;13.13;5.13;;;3.00;55.90;;;;;;6136271;23;20417;-83
2021/04/26 23:23:07;;;;;;;;;;;;;;;;;;;;;
2021/04/26 23:26:17;;;;;;;8.60;3.10;;;3.20;59.50;;;;;;6150701;23;20835;-82
2021/04/26 23:28:55;;;;;;;;;;;;;;;;;;;;;
2021/04/26 23:34:42;;;;;;;10.07;4.87;;;2.90;67.20;;;;;;6153562;23;20437;-83
2021/04/26 23:38:03;;;;;;;;;;;;;;;;;;;;;
2021/04/26 23:40:53;;;;;;;11.20;4.60;;;2.80;67.70;;;;;;6001127;23;21268;-82
2021/04/26 23:43:58;;;;;;;9.43;3.57;;;2.80;74.30;;;;;;5954086;23;20441;-82
2021/04/26 23:46:29;;;;;;;12.37;5.07;;;2.70;71.70;;;;;;6017574;23;20536;-82
2021/04/26 23:49:01;;;;;;;11.53;4.90;;;2.70;73.70;;;;;;6018057;23;20708;-82
2021/04/26 23:51:35;;;;;;;21.50;4.87;;;2.60;69.20;;;;;;6008390;23;20478;-82
2021/04/26 23:54:21;;;;;;;11.10;4.80;;;2.60;71.70;;;;;;6017837;23;20449;-83
2021/04/26 23:59:53;;;;;;;10.53;5.43;;;2.70;62.60;;;;;;6184190;23;20456;-81
